createdAt,value
2022-11-05T00:00:39.235Z,61.3
2022-11-05T00:03:07.699Z,61.69
2022-11-05T00:05:35.840Z,61.45
2022-11-05T00:08:04.010Z,61.64
2022-11-05T00:13:09.015Z,61.88
2022-11-05T00:24:07.777Z,61.45
2022-11-05T00:29:04.272Z,61.37
2022-11-05T00:35:23.175Z,61.2
2022-11-05T00:37:51.400Z,61.1
2022-11-05T00:41:33.829Z,61.16
2022-11-05T00:45:16.204Z,61.04
2022-11-05T00:47:44.454Z,61.15
2022-11-05T00:51:26.881Z,60.85
2022-11-05T00:55:09.310Z,60.62
2022-11-05T00:57:37.550Z,60.87
2022-11-05T01:00:14.040Z,60.96
2022-11-05T01:05:10.532Z,60.82
2022-11-05T01:15:03.596Z,60.81
2022-11-05T01:26:18.991Z,60.84
2022-11-05T01:28:47.345Z,60.7
2022-11-05T01:31:15.525Z,60.66
2022-11-05T01:33:43.802Z,60.65
2022-11-05T01:36:12.069Z,60.63
2022-11-05T01:38:40.333Z,61.13
2022-11-05T01:41:08.597Z,61.19
2022-11-05T01:43:36.863Z,61.14
2022-11-05T01:46:05.150Z,61.18
2022-11-05T01:51:09.834Z,61.28
2022-11-05T01:56:06.403Z,61.34
2022-11-05T02:01:02.948Z,61.19
2022-11-05T02:06:07.678Z,61.09
2022-11-05T02:08:35.903Z,60.95
2022-11-05T02:11:04.156Z,61.11
2022-11-05T02:13:32.462Z,60.95
2022-11-05T02:17:14.861Z,60.82
2022-11-05T02:22:11.387Z,61.45
2022-11-05T02:26:51.547Z,61.4
2022-11-05T02:30:33.941Z,61.93
2022-11-05T02:33:10.735Z,61.65
2022-11-05T02:38:06.911Z,61.78
2022-11-05T02:43:03.490Z,61.88
2022-11-05T02:48:08.219Z,61.55
2022-11-05T02:53:04.703Z,61.8
2022-11-05T03:04:20.152Z,62.24
2022-11-05T03:06:48.392Z,62.03
2022-11-05T03:10:30.825Z,62.31
2022-11-05T03:14:13.186Z,61.63
2022-11-05T03:16:41.440Z,61.65
2022-11-05T03:20:23.886Z,61.28
2022-11-05T03:24:06.234Z,61.01
2022-11-05T03:26:34.513Z,60.56
2022-11-05T03:34:07.496Z,60.1
2022-11-05T03:45:14.725Z,59.12
2022-11-05T03:50:11.219Z,59.83
2022-11-05T03:54:01.846Z,59.87
2022-11-05T03:56:30.120Z,60.21
2022-11-05T04:00:12.488Z,60.46
2022-11-05T04:03:54.904Z,60.31
2022-11-05T04:07:20.921Z,60.39
2022-11-05T04:09:49.173Z,60.21
2022-11-05T04:12:17.456Z,60.25
2022-11-05T04:14:45.706Z,60.32
2022-11-05T04:17:22.173Z,59.99
2022-11-05T04:21:04.597Z,60.09
2022-11-05T04:27:15.260Z,59.76
2022-11-05T04:32:11.826Z,59.83
2022-11-05T04:34:48.240Z,59.53
2022-11-05T04:37:16.538Z,59.43
2022-11-05T04:39:44.767Z,60.06
2022-11-05T04:42:13.041Z,59.63
2022-11-05T04:44:41.296Z,59.9
2022-11-05T04:47:09.533Z,59.61
2022-11-05T04:49:37.825Z,59.95
2022-11-05T04:52:06.081Z,60.37
2022-11-05T04:54:34.349Z,60.02
2022-11-05T04:57:02.610Z,59.97
2022-11-05T05:02:07.435Z,59.17
2022-11-05T05:07:03.898Z,59.41
2022-11-05T05:14:36.885Z,60.25
2022-11-05T05:18:19.274Z,60.12
2022-11-05T05:22:01.682Z,60.2
2022-11-05T05:25:44.063Z,59.94
2022-11-05T05:29:26.508Z,59.79
2022-11-05T05:33:08.993Z,59.28
2022-11-05T05:36:51.270Z,59.57
2022-11-05T05:40:33.696Z,59.22
2022-11-05T05:44:16.101Z,59.75
2022-11-05T05:47:58.509Z,59.6
2022-11-05T05:54:17.352Z,59.97
2022-11-05T05:56:45.627Z,59.6
2022-11-05T05:59:13.919Z,59.57
2022-11-05T06:01:42.284Z,59.72
2022-11-05T06:05:08.176Z,59.5
2022-11-05T06:08:50.537Z,59.4
2022-11-05T06:12:32.974Z,59.79
2022-11-05T06:16:23.556Z,59.91
2022-11-05T06:20:05.949Z,60.3
2022-11-05T06:25:02.462Z,60.13
2022-11-05T06:31:13.165Z,59.82
2022-11-05T06:36:09.650Z,59.94
2022-11-05T06:42:28.522Z,60.05
2022-11-05T06:44:56.824Z,60.29
2022-11-05T06:48:39.177Z,59.85
2022-11-05T06:52:21.591Z,59.81
2022-11-05T06:54:49.851Z,59.8
2022-11-05T06:57:18.134Z,60.23
2022-11-05T06:59:46.376Z,60.14
2022-11-05T07:02:14.699Z,59.84
2022-11-05T07:12:07.737Z,60.6
2022-11-05T07:17:04.235Z,61.14
2022-11-05T07:25:51.370Z,60.58
2022-11-05T07:28:19.632Z,60.69
2022-11-05T07:32:02.076Z,60.86
2022-11-05T07:34:30.283Z,60.42
2022-11-05T07:38:12.738Z,60.47
2022-11-05T07:41:55.135Z,60.52
2022-11-05T07:44:23.394Z,60.47
2022-11-05T07:48:05.767Z,60.15
2022-11-05T07:53:10.710Z,60.27
2022-11-05T07:58:07.088Z,59.48
2022-11-05T08:03:12.174Z,59.84
2022-11-05T08:05:40.037Z,60.18
2022-11-05T08:08:00.138Z,60.13
2022-11-05T08:14:10.752Z,59.86
2022-11-05T08:19:15.504Z,60.14
2022-11-05T08:24:12.033Z,60.05
2022-11-05T08:29:08.553Z,60.08
2022-11-05T08:34:05.072Z,59.64
2022-11-05T08:40:15.892Z,59.86
2022-11-05T08:45:20.489Z,59.77
2022-11-05T08:49:11.060Z,59.06
2022-11-05T08:54:07.569Z,59.58
2022-11-05T09:02:54.756Z,58.76
2022-11-05T09:06:37.141Z,58.48
2022-11-05T09:09:05.406Z,58.36
2022-11-05T09:11:57.332Z,58.32
2022-11-05T09:14:01.942Z,58.14
2022-11-05T09:17:44.375Z,59.12
2022-11-05T09:20:12.680Z,58.81
2022-11-05T09:22:49.083Z,59.2
2022-11-05T09:25:17.326Z,58.64
2022-11-05T09:27:45.866Z,58.94
2022-11-05T09:30:13.978Z,58.62
2022-11-05T09:32:42.100Z,58.44
2022-11-05T09:35:10.384Z,58.25
2022-11-05T09:37:38.634Z,58.39
2022-11-05T09:40:06.919Z,57.82
2022-11-05T09:42:35.160Z,57.58
2022-11-05T09:45:03.458Z,58.03
2022-11-05T09:50:08.268Z,57.74
2022-11-05T09:55:04.725Z,57.72
2022-11-05T10:01:15.653Z,57.61
2022-11-05T10:05:09.607Z,57.21
2022-11-05T10:08:48.350Z,56.96
2022-11-05T10:12:30.851Z,57.04
2022-11-05T10:17:27.304Z,57.03
2022-11-05T10:19:55.700Z,56.48
2022-11-05T10:23:37.991Z,57.07
2022-11-05T10:27:20.362Z,56.6
2022-11-05T10:31:02.782Z,56.47
2022-11-05T10:34:45.202Z,56.28
2022-11-05T10:38:27.612Z,56.26
2022-11-05T10:42:18.254Z,56.56
2022-11-05T10:44:54.698Z,55.95
2022-11-05T10:47:22.914Z,56.21
2022-11-05T10:49:51.231Z,55.74
2022-11-05T10:52:19.452Z,55.06
2022-11-05T10:54:47.703Z,54.93
2022-11-05T10:57:15.933Z,54.31
2022-11-05T10:59:44.368Z,53.93
2022-11-05T11:03:10.446Z,52.98
2022-11-05T11:06:52.722Z,53.78
2022-11-05T11:13:11.711Z,51.66
2022-11-05T11:18:08.013Z,51.09
2022-11-05T11:23:04.566Z,50.09
2022-11-05T11:29:15.334Z,49.97
2022-11-05T11:33:06.088Z,50.29
2022-11-05T11:36:48.347Z,50.01
2022-11-05T11:39:16.530Z,49.92
2022-11-05T11:41:44.854Z,49.95
2022-11-05T11:44:13.010Z,50.35
2022-11-05T11:46:41.303Z,49.98
2022-11-05T11:49:09.592Z,49.97
2022-11-05T11:51:37.855Z,50.71
2022-11-05T11:54:06.113Z,50.62
2022-11-05T11:59:10.808Z,51.28
2022-11-05T12:09:12.084Z,50.74
2022-11-05T12:14:08.614Z,48.15
2022-11-05T12:19:21.544Z,47.62
2022-11-05T12:23:03.915Z,47.49
2022-11-05T12:29:19.059Z,47.61
2022-11-05T12:34:11.103Z,46.79
2022-11-05T12:39:07.665Z,46.54
2022-11-05T12:44:12.612Z,45.68
2022-11-05T12:46:40.633Z,45.1
2022-11-05T12:49:08.985Z,44.68
2022-11-05T12:51:37.454Z,44.18
2022-11-05T12:54:05.458Z,44.57
2022-11-05T12:57:56.137Z,45.33
2022-11-05T13:00:32.697Z,45.14
2022-11-05T13:03:58.658Z,44.65
2022-11-05T13:06:26.778Z,44.64
2022-11-05T13:08:55.055Z,44.38
2022-11-05T13:11:23.605Z,42.96
2022-11-05T13:15:13.892Z,42.48
2022-11-05T13:19:04.503Z,42.44
2022-11-05T13:21:32.907Z,42.77
2022-11-05T13:24:01.030Z,43
2022-11-05T13:26:29.290Z,43.14
2022-11-05T13:28:57.746Z,43.18
2022-11-05T13:31:25.838Z,43.63
2022-11-05T13:33:54.250Z,43.55
2022-11-05T13:36:30.773Z,44.92
2022-11-05T13:40:21.161Z,43.49
2022-11-05T13:46:32.013Z,44.09
2022-11-05T13:50:22.851Z,44.06
2022-11-05T13:52:50.676Z,44.48
2022-11-05T13:55:18.979Z,44.71
2022-11-05T13:57:47.470Z,44.69
2022-11-05T14:00:15.521Z,45.34
2022-11-05T14:02:43.839Z,45.9
2022-11-05T14:06:26.150Z,46.19
2022-11-05T14:10:08.723Z,45.63
2022-11-05T14:12:36.825Z,45.39
2022-11-05T14:21:16.108Z,44.09
2022-11-05T14:26:12.317Z,44.25
2022-11-05T14:31:09.018Z,45.07
2022-11-05T14:36:05.364Z,45.08
2022-11-05T14:42:16.115Z,46.26
2022-11-05T14:46:14.818Z,46.6
2022-11-05T14:50:05.544Z,46.99
2022-11-05T14:56:16.199Z,47.31
2022-11-05T15:01:12.631Z,47.4
2022-11-05T15:06:17.992Z,47.43
2022-11-05T15:10:10.450Z,47.59
2022-11-05T15:12:36.318Z,47.76
2022-11-05T15:15:04.464Z,47.77
2022-11-05T15:17:32.803Z,48
2022-11-05T15:20:00.972Z,47.77
2022-11-05T15:22:29.237Z,47.64
2022-11-05T15:26:11.775Z,47.96
2022-11-05T15:29:54.178Z,48.15
2022-11-05T15:32:22.697Z,49.03
2022-11-05T15:36:04.928Z,48.5
2022-11-05T15:41:09.652Z,48.87
2022-11-05T15:46:14.276Z,48.7
2022-11-05T15:50:07.554Z,49.16
2022-11-05T15:56:07.239Z,49.47
2022-11-05T16:01:03.874Z,49.34
2022-11-05T16:07:14.520Z,49.33
2022-11-05T16:09:50.958Z,49.8
2022-11-05T16:12:19.277Z,49.92
2022-11-05T16:16:01.548Z,49.12
2022-11-05T16:19:43.960Z,49.81
2022-11-05T16:22:12.437Z,48.62
2022-11-05T16:24:40.594Z,48.95
2022-11-05T16:27:08.748Z,50
2022-11-05T16:29:37.997Z,49.31
2022-11-05T16:32:05.285Z,49.84
2022-11-05T16:37:10.023Z,49.88
2022-11-05T16:42:06.572Z,50.58
2022-11-05T16:47:03.156Z,50.62
2022-11-05T16:54:27.972Z,50.66
2022-11-05T16:56:56.169Z,50.95
2022-11-05T16:59:24.567Z,50.3
2022-11-05T17:01:55.733Z,51.05
2022-11-05T17:05:35.155Z,51.1
2022-11-05T17:09:17.590Z,51.09
2022-11-05T17:11:46.382Z,51.28
2022-11-05T17:15:28.143Z,51.32
2022-11-05T17:19:18.808Z,51.43
2022-11-05T17:24:15.456Z,51.43
2022-11-05T17:29:11.895Z,51.55
2022-11-05T17:39:04.910Z,51.93
2022-11-05T17:45:15.513Z,51.62
2022-11-05T17:50:12.061Z,51.78
2022-11-05T17:55:16.935Z,51.76
2022-11-05T17:58:59.204Z,51.66
2022-11-05T18:01:27.715Z,51.92
2022-11-05T18:03:55.737Z,51.79
2022-11-05T18:06:24.143Z,51.83
2022-11-05T18:08:52.587Z,51.04
2022-11-05T18:11:20.520Z,52.7
2022-11-05T18:15:03.003Z,52.01
2022-11-05T18:21:05.484Z,52.17
2022-11-05T18:32:12.636Z,52.5
2022-11-05T18:38:31.714Z,52.62
2022-11-05T18:40:59.810Z,51.98
2022-11-05T18:44:42.137Z,52.08
2022-11-05T18:47:10.544Z,52.58
2022-11-05T18:49:46.898Z,52.5
2022-11-05T18:52:15.234Z,52.55
2022-11-05T18:54:43.408Z,52.47
2022-11-05T18:57:11.667Z,52.5
2022-11-05T18:59:40.097Z,52.18
2022-11-05T19:02:16.498Z,52.15
2022-11-05T19:07:12.908Z,52.44
2022-11-05T19:12:09.460Z,52.56
2022-11-05T19:19:34.267Z,52.53
2022-11-05T19:22:02.601Z,52.45
2022-11-05T19:24:30.766Z,52.25
2022-11-05T19:26:59.070Z,52.41
2022-11-05T19:29:27.635Z,52.46
2022-11-05T19:31:55.599Z,52.57
2022-11-05T19:34:23.945Z,52.68
2022-11-05T19:36:52.389Z,52.56
2022-11-05T19:39:20.367Z,52.64
2022-11-05T19:41:48.701Z,52.54
2022-11-05T19:48:07.508Z,52.77
2022-11-05T19:59:22.959Z,52.86
2022-11-05T20:04:19.456Z,52.83
2022-11-05T20:06:48.184Z,52.94
2022-11-05T20:10:30.825Z,53.07
2022-11-05T20:14:13.118Z,53.26
2022-11-05T20:17:54.878Z,53.23
2022-11-05T20:21:37.675Z,53.2
2022-11-05T20:25:19.719Z,53.16
2022-11-05T20:29:02.221Z,53.29
2022-11-05T20:33:59.176Z,53.48
2022-11-05T20:38:47.210Z,53.36
2022-11-05T20:41:16.032Z,53.26
2022-11-05T20:43:43.530Z,53.3
2022-11-05T20:46:12.012Z,53.42
2022-11-05T20:48:40.042Z,53.36
2022-11-05T20:51:08.473Z,53.36
2022-11-05T20:53:36.569Z,53.38
2022-11-05T20:56:07.739Z,53.47
2022-11-05T20:58:33.118Z,53.51
2022-11-05T21:06:06.358Z,53.74
2022-11-05T21:11:02.792Z,53.76
2022-11-05T21:18:35.625Z,53.72
2022-11-05T21:21:03.891Z,53.76
2022-11-05T21:23:32.158Z,53.75
2022-11-05T21:26:00.465Z,53.7
2022-11-05T21:28:28.666Z,53.81
2022-11-05T21:30:57.610Z,53.8
2022-11-05T21:33:25.220Z,53.87
2022-11-05T21:35:53.602Z,53.84
2022-11-05T21:38:21.790Z,53.85
2022-11-05T21:40:50.042Z,53.84
2022-11-05T21:47:08.902Z,54.01
2022-11-05T21:58:16.183Z,54.02
2022-11-05T22:00:44.375Z,54.01
2022-11-05T22:03:04.506Z,53.21
2022-11-05T22:06:55.187Z,54.23
2022-11-05T22:09:23.301Z,54.15
2022-11-05T22:11:51.550Z,53.74
2022-11-05T22:14:19.815Z,53.99
2022-11-05T22:16:48.196Z,54.09
2022-11-05T22:19:16.377Z,54.02
2022-11-05T22:22:58.856Z,53.77
2022-11-05T22:26:41.212Z,53.95
2022-11-05T22:29:09.400Z,54.06
2022-11-05T22:34:14.165Z,54.1
2022-11-05T22:39:10.689Z,54.2
2022-11-05T22:44:07.237Z,54.25
2022-11-05T22:49:03.738Z,54.17
2022-11-05T22:59:07.829Z,54.25
2022-11-05T23:02:31.249Z,54
2022-11-05T23:04:59.327Z,54.03
2022-11-05T23:07:28.399Z,54.07
2022-11-05T23:09:55.798Z,54.2
2022-11-05T23:12:24.172Z,54.33
2022-11-05T23:14:52.334Z,54.18
2022-11-05T23:17:20.720Z,54.17
2022-11-05T23:26:07.795Z,54.21
2022-11-05T23:37:24.494Z,54.43
2022-11-05T23:39:51.410Z,54.3
2022-11-05T23:42:19.896Z,54.37
2022-11-05T23:44:47.915Z,54.24
2022-11-05T23:47:16.400Z,54.37
2022-11-05T23:49:44.439Z,54.34
2022-11-05T23:52:12.828Z,54.32
2022-11-05T23:54:40.995Z,54.23
2022-11-05T23:57:09.270Z,54.18
2022-11-05T23:59:37.532Z,54.36
